Time;durP1;ratioP1;P1;durP2;ratioP2;P2;SDS_P1;SDS_P2;PMS_P1;PMS_P2;Temp;Humidity;BMP_temperature;BMP_pressure;BME280_temperature;BME280_humidity;BME280_pressure;Samples;Min_cycle;Max_cycle;Signal;HPM_P1;HPM_P2
2023/01/20 00:01:14;;;;;;;56.55;29.60;;;3.00;99.90;;;;;;5054801;28;20029;-77
2023/01/20 00:03:41;;;;;;;64.53;36.17;;;3.00;99.90;;;;;;5054986;28;20522;-79
2023/01/20 00:06:08;;;;;;;53.70;31.42;;;3.00;99.90;;;;;;5055198;28;20055;-76
2023/01/20 00:08:34;;;;;;;58.53;35.10;;;3.00;99.90;;;;;;5054737;28;20025;-76
2023/01/20 00:11:09;;;;;;;63.53;33.70;;;3.00;99.90;;;;;;5036896;28;20101;-77
2023/01/20 00:13:36;;;;;;;52.92;32.03;;;3.00;99.90;;;;;;5054684;28;20047;-77
2023/01/20 00:16:07;;;;;;;53.10;31.42;;;3.00;99.90;;;;;;5054889;28;20009;-79
2023/01/20 00:18:33;;;;;;;57.47;32.17;;;3.00;99.90;;;;;;5036951;28;20400;-77
2023/01/20 00:21:07;;;;;;;56.58;31.75;;;3.00;99.90;;;;;;5054740;28;20120;-77
2023/01/20 00:23:34;;;;;;;52.22;27.73;;;3.00;99.90;;;;;;5054903;28;20021;-77
2023/01/20 00:26:04;;;;;;;54.13;29.55;;;3.10;99.90;;;;;;5054455;28;20040;-78
2023/01/20 00:28:30;;;;;;;53.00;31.75;;;3.00;99.90;;;;;;5037292;28;20029;-80
2023/01/20 00:30:56;;;;;;;53.25;31.02;;;3.00;99.90;;;;;;5054940;28;20551;-81
2023/01/20 00:33:22;;;;;;;50.83;33.05;;;3.00;99.90;;;;;;5055011;28;20021;-81
2023/01/20 00:35:48;;;;;;;53.08;31.33;;;3.10;99.90;;;;;;5054749;28;20027;-81
2023/01/20 00:38:14;;;;;;;48.75;29.80;;;3.10;99.90;;;;;;5054774;28;20025;-81
2023/01/20 00:40:40;;;;;;;59.33;31.40;;;3.10;99.90;;;;;;5036365;28;20034;-80
2023/01/20 00:43:06;;;;;;;52.25;32.03;;;3.10;99.90;;;;;;5052658;28;20029;-81
2023/01/20 00:45:32;;;;;;;55.13;31.38;;;3.10;99.90;;;;;;5036304;28;20032;-80
2023/01/20 00:47:58;;;;;;;51.90;30.13;;;3.20;99.90;;;;;;5053826;28;20023;-77
2023/01/20 00:50:24;;;;;;;60.15;33.08;;;3.20;99.90;;;;;;5053926;28;20036;-80
2023/01/20 00:52:50;;;;;;;55.53;33.45;;;3.20;99.90;;;;;;5053729;28;20510;-79
2023/01/20 00:55:15;;;;;;;57.92;27.58;;;3.30;99.90;;;;;;5053544;28;20021;-76
2023/01/20 00:57:41;;;;;;;59.45;32.17;;;3.20;99.90;;;;;;5052634;28;20056;-75
2023/01/20 01:00:08;;;;;;;51.78;27.60;;;3.30;99.90;;;;;;5053669;28;20021;-75
2023/01/20 01:02:38;;;;;;;43.88;25.60;;;3.20;99.90;;;;;;5053740;28;20021;-76
2023/01/20 01:05:04;;;;;;;48.90;28.40;;;3.20;99.90;;;;;;5053455;28;20052;-76
2023/01/20 01:07:30;;;;;;;54.28;30.80;;;3.20;99.90;;;;;;5053720;28;20484;-76
2023/01/20 01:09:56;;;;;;;48.15;29.38;;;3.20;99.90;;;;;;5053543;28;20059;-76
2023/01/20 01:12:23;;;;;;;52.13;30.45;;;3.20;99.90;;;;;;5053537;28;20095;-75
2023/01/20 01:14:48;;;;;;;50.20;32.83;;;3.30;99.90;;;;;;5050412;28;20047;-76
2023/01/20 01:17:14;;;;;;;56.30;31.70;;;3.30;99.90;;;;;;5053347;28;20021;-75
2023/01/20 01:19:40;;;;;;;43.35;25.83;;;3.30;99.90;;;;;;5053404;28;20033;-75
2023/01/20 01:22:06;;;;;;;50.75;28.27;;;3.30;99.90;;;;;;5053362;28;20018;-76
2023/01/20 01:24:32;;;;;;;45.30;27.42;;;3.30;99.90;;;;;;5053220;28;20029;-77
2023/01/20 01:26:58;;;;;;;52.20;32.35;;;3.30;99.90;;;;;;5053194;28;20021;-76
2023/01/20 01:29:23;;;;;;;50.45;31.70;;;3.30;99.90;;;;;;5053153;28;20029;-73
2023/01/20 01:31:49;;;;;;;59.67;26.45;;;3.40;99.90;;;;;;5053202;28;20779;-76
2023/01/20 01:34:15;;;;;;;50.83;28.92;;;3.40;99.90;;;;;;5031711;28;20029;-77
2023/01/20 01:36:41;;;;;;;51.08;27.52;;;3.40;99.90;;;;;;5050776;28;20032;-77
2023/01/20 01:39:07;;;;;;;40.47;23.25;;;3.40;99.90;;;;;;5053068;28;20024;-77
2023/01/20 01:41:33;;;;;;;52.53;27.77;;;3.40;99.90;;;;;;5047526;28;20423;-78
2023/01/20 01:44:08;;;;;;;53.45;31.00;;;3.40;99.90;;;;;;5047622;28;20041;-76
2023/01/20 01:46:35;;;;;;;49.88;30.08;;;3.40;99.90;;;;;;5034910;28;20464;-75
2023/01/20 01:49:12;;;;;;;46.35;27.88;;;3.40;99.90;;;;;;5053051;28;20079;-75
2023/01/20 01:51:46;;;;;;;60.63;28.70;;;3.50;99.90;;;;;;5052821;28;20028;-76
2023/01/20 01:54:15;;;;;;;52.15;32.25;;;3.50;99.90;;;;;;5052753;28;20021;-76
2023/01/20 01:56:44;;;;;;;51.65;28.52;;;3.40;99.90;;;;;;5052646;28;20035;-76
2023/01/20 01:59:11;;;;;;;52.63;30.10;;;3.50;99.90;;;;;;5052419;28;20102;-75
2023/01/20 02:01:41;;;;;;;44.05;25.60;;;3.40;99.90;;;;;;5052509;28;20082;-75
2023/01/20 02:04:10;;;;;;;44.42;26.75;;;3.40;99.90;;;;;;5052565;28;20552;-76
2023/01/20 02:06:40;;;;;;;40.08;24.95;;;3.50;99.90;;;;;;5034376;28;20033;-74
2023/01/20 02:09:06;;;;;;;51.45;29.70;;;3.40;99.90;;;;;;5034370;28;20025;-74
2023/01/20 02:11:38;;;;;;;46.28;23.73;;;3.40;99.90;;;;;;5052268;28;20101;-75
2023/01/20 02:14:04;;;;;;;43.75;26.50;;;3.40;99.90;;;;;;5052700;28;20385;-75
2023/01/20 02:16:57;;;;;;;48.65;26.30;;;3.50;99.90;;;;;;5050698;28;20036;-74
2023/01/20 02:19:34;;;;;;;47.45;30.20;;;3.50;99.90;;;;;;5043852;28;20157;-74
2023/01/20 02:22:00;;;;;;;45.22;25.50;;;3.50;99.90;;;;;;5052209;28;20025;-76
2023/01/20 02:24:35;;;;;;;48.10;26.05;;;3.50;99.90;;;;;;5052127;28;20037;-74
2023/01/20 02:27:03;;;;;;;49.35;28.38;;;3.50;99.90;;;;;;5051977;28;20064;-75
2023/01/20 02:29:47;;;;;;;55.60;30.55;;;3.50;99.90;;;;;;5052082;28;20032;-77
2023/01/20 02:32:25;;;;;;;47.90;28.85;;;3.50;99.90;;;;;;5052083;28;20032;-76
2023/01/20 02:35:06;;;;;;;43.78;25.92;;;3.60;99.90;;;;;;5042770;28;20025;-76
2023/01/20 02:38:14;;;;;;;48.15;23.90;;;3.50;99.90;;;;;;5033762;28;20377;-76
2023/01/20 02:41:09;;;;;;;47.22;27.50;;;3.60;99.90;;;;;;5046572;28;20047;-78
2023/01/20 02:43:44;;;;;;;45.35;25.17;;;3.50;99.90;;;;;;5051695;28;20028;-75
2023/01/20 02:46:31;;;;;;;47.70;23.23;;;3.50;99.90;;;;;;5047387;28;20456;-76
2023/01/20 02:49:12;;;;;;;46.95;29.30;;;3.50;99.90;;;;;;5043106;28;20025;-75
2023/01/20 02:52:13;;;;;;;48.22;25.98;;;3.50;99.90;;;;;;5051772;28;20103;-75
2023/01/20 02:54:43;;;;;;;48.92;25.80;;;3.50;99.90;;;;;;5051746;28;20111;-75
2023/01/20 02:57:14;;;;;;;42.42;26.75;;;3.50;99.90;;;;;;5051553;28;20092;-75
2023/01/20 02:59:44;;;;;;;49.50;27.23;;;3.50;99.90;;;;;;5033640;28;20029;-76
2023/01/20 03:02:19;;;;;;;45.28;28.13;;;3.60;99.90;;;;;;5051680;28;20021;-76
2023/01/20 03:05:14;;;;;;;43.28;23.77;;;3.60;99.90;;;;;;5051393;28;20066;-76
2023/01/20 03:07:41;;;;;;;44.42;25.40;;;3.60;99.90;;;;;;5047701;28;20403;-75
2023/01/20 03:10:12;;;;;;;42.15;25.33;;;3.70;99.90;;;;;;5051389;28;20036;-75
2023/01/20 03:12:45;;;;;;;41.15;25.10;;;3.70;99.90;;;;;;5051427;28;20052;-75
2023/01/20 03:15:12;;;;;;;41.15;22.00;;;3.60;99.90;;;;;;5047928;28;20029;-77
2023/01/20 03:17:38;;;;;;;38.72;21.63;;;3.70;99.90;;;;;;5051454;28;20022;-75
2023/01/20 03:20:04;;;;;;;37.85;21.40;;;3.70;99.90;;;;;;5050844;28;20325;-75
2023/01/20 03:22:31;;;;;;;43.88;21.00;;;3.70;99.90;;;;;;5051348;28;20043;-76
2023/01/20 03:24:58;;;;;;;44.67;26.90;;;3.70;99.90;;;;;;5051177;28;20039;-75
2023/01/20 03:27:25;;;;;;;46.00;26.25;;;3.70;99.90;;;;;;5051192;28;20487;-75
2023/01/20 03:29:51;;;;;;;47.25;25.20;;;3.70;99.90;;;;;;5051211;28;20033;-74
2023/01/20 03:32:24;;;;;;;37.05;21.42;;;3.70;99.90;;;;;;5051261;28;20028;-75
2023/01/20 03:34:52;;;;;;;39.28;19.95;;;3.70;99.90;;;;;;5033020;28;20297;-74
2023/01/20 03:37:18;;;;;;;44.85;22.23;;;3.80;99.90;;;;;;5033628;28;20107;-74
2023/01/20 03:39:44;;;;;;;41.33;21.23;;;3.80;99.90;;;;;;5051105;28;20028;-77
2023/01/20 03:42:28;;;;;;;37.83;18.08;;;3.80;99.90;;;;;;5051337;28;20330;-75
2023/01/20 03:45:42;;;;;;;45.72;22.05;;;3.80;99.90;;;;;;5051377;28;20074;-75
2023/01/20 03:48:35;;;;;;;45.80;25.33;;;3.80;99.90;;;;;;5046438;28;20092;-74
2023/01/20 03:51:17;;;;;;;38.88;22.90;;;3.90;99.90;;;;;;5051638;28;20040;-74
2023/01/20 03:53:51;;;;;;;44.53;22.98;;;3.90;99.90;;;;;;5052346;28;20013;-75
2023/01/20 03:56:40;;;;;;;43.03;24.42;;;3.90;99.90;;;;;;5052154;28;20032;-75
2023/01/20 03:59:07;;;;;;;38.05;19.70;;;3.90;99.90;;;;;;5053362;28;20037;-75
2023/01/20 04:01:38;;;;;;;39.00;20.17;;;3.90;99.90;;;;;;5044120;28;20111;-75
2023/01/20 04:04:08;;;;;;;40.35;22.35;;;3.90;99.90;;;;;;5061778;28;20467;-74
2023/01/20 04:06:35;;;;;;;43.75;23.80;;;3.90;99.90;;;;;;5062195;28;20029;-74
2023/01/20 04:09:26;;;;;;;38.85;23.60;;;3.90;99.90;;;;;;5063666;28;20017;-74
2023/01/20 04:11:52;;;;;;;43.38;24.83;;;3.90;99.90;;;;;;5060415;28;20515;-76
2023/01/20 04:14:18;;;;;;;42.03;22.20;;;3.90;99.90;;;;;;5052472;28;20024;-73
2023/01/20 04:16:56;;;;;;;40.13;23.25;;;3.90;99.90;;;;;;5050937;28;20025;-76
2023/01/20 04:19:23;;;;;;;35.60;20.52;;;3.90;99.90;;;;;;5049965;28;20364;-75
2023/01/20 04:21:59;;;;;;;40.70;23.10;;;3.90;99.90;;;;;;5046243;28;20017;-73
2023/01/20 04:24:28;;;;;;;45.15;22.02;;;3.90;99.90;;;;;;5051253;28;20036;-76
2023/01/20 04:26:53;;;;;;;28.80;16.88;;;3.90;99.90;;;;;;5033024;28;20163;-76
2023/01/20 04:29:20;;;;;;;37.70;19.52;;;3.90;99.90;;;;;;5051039;28;20100;-76
2023/01/20 04:31:46;;;;;;;42.47;23.48;;;3.90;99.90;;;;;;5053499;28;20375;-76
2023/01/20 04:34:14;;;;;;;36.10;20.40;;;3.90;99.90;;;;;;5052790;28;20021;-76
2023/01/20 04:36:41;;;;;;;40.83;17.20;;;3.90;99.90;;;;;;5045762;28;20060;-74
2023/01/20 04:39:07;;;;;;;42.23;24.57;;;3.90;99.90;;;;;;5054194;28;20021;-74
2023/01/20 04:41:32;;;;;;;42.33;23.27;;;3.90;99.90;;;;;;5054179;28;20028;-75
2023/01/20 04:43:58;;;;;;;38.92;22.77;;;3.90;99.90;;;;;;5054075;28;20105;-76
2023/01/20 04:46:24;;;;;;;46.10;22.90;;;3.90;99.90;;;;;;5050370;28;20025;-76
2023/01/20 04:48:50;;;;;;;45.10;24.23;;;3.90;99.90;;;;;;5043993;28;20108;-75
2023/01/20 04:51:16;;;;;;;39.10;25.40;;;4.00;99.90;;;;;;5053036;28;20031;-76
2023/01/20 04:53:41;;;;;;;46.22;25.45;;;4.00;99.90;;;;;;5035621;28;20391;-75
2023/01/20 04:56:11;;;;;;;42.95;23.20;;;4.00;99.90;;;;;;5053613;28;20033;-77
2023/01/20 04:58:38;;;;;;;42.33;24.52;;;4.10;99.90;;;;;;5040101;28;20400;-75
2023/01/20 05:01:03;;;;;;;43.13;22.70;;;4.00;99.90;;;;;;5053813;28;20471;-77
2023/01/20 05:03:29;;;;;;;44.72;24.92;;;4.10;99.90;;;;;;5035545;28;20029;-76
2023/01/20 05:05:55;;;;;;;43.33;23.30;;;4.10;99.90;;;;;;5035522;28;20051;-75
2023/01/20 05:08:21;;;;;;;39.63;21.58;;;4.10;99.90;;;;;;5035511;28;20111;-75
2023/01/20 05:10:47;;;;;;;38.25;21.23;;;4.10;99.90;;;;;;5054077;28;20029;-76
2023/01/20 05:13:13;;;;;;;43.00;20.58;;;4.10;99.90;;;;;;5053348;28;20371;-76
2023/01/20 05:15:39;;;;;;;42.80;21.33;;;4.00;99.90;;;;;;5053368;28;20048;-75
2023/01/20 05:18:05;;;;;;;43.58;22.52;;;4.10;99.90;;;;;;5053458;28;20032;-75
2023/01/20 05:20:31;;;;;;;47.15;21.95;;;4.00;99.90;;;;;;5050412;28;20024;-75
2023/01/20 05:22:57;;;;;;;39.78;23.25;;;4.10;99.90;;;;;;5053143;28;20017;-77
2023/01/20 05:25:23;;;;;;;45.97;23.85;;;4.10;99.90;;;;;;5018504;28;20037;-76
2023/01/20 05:27:49;;;;;;;42.63;23.35;;;4.10;99.90;;;;;;5053057;28;20095;-75
2023/01/20 05:30:15;;;;;;;38.45;21.73;;;4.10;99.90;;;;;;5052684;28;20105;-74
2023/01/20 05:32:41;;;;;;;42.38;24.58;;;4.10;99.90;;;;;;5051665;28;20144;-75
2023/01/20 05:35:07;;;;;;;43.08;24.85;;;4.10;99.90;;;;;;5045707;28;20454;-77
2023/01/20 05:37:33;;;;;;;39.00;22.58;;;4.10;99.90;;;;;;5052733;28;20017;-75
2023/01/20 05:39:59;;;;;;;36.45;21.05;;;4.10;99.90;;;;;;5052978;28;20551;-75
2023/01/20 05:42:25;;;;;;;36.03;21.27;;;4.10;99.90;;;;;;5052096;28;20223;-73
2023/01/20 05:44:51;;;;;;;37.60;23.50;;;4.10;99.90;;;;;;5052594;28;20040;-75
2023/01/20 05:47:17;;;;;;;48.13;22.60;;;4.10;99.90;;;;;;5034753;28;20025;-74
2023/01/20 05:49:43;;;;;;;41.67;20.73;;;4.10;99.90;;;;;;5052530;28;20021;-76
2023/01/20 05:52:09;;;;;;;40.20;22.30;;;4.10;99.90;;;;;;5051684;28;20387;-74
2023/01/20 05:54:35;;;;;;;42.65;25.70;;;4.10;99.90;;;;;;5052414;28;20033;-74
2023/01/20 05:57:03;;;;;;;46.63;23.60;;;4.10;99.90;;;;;;5034515;28;20029;-78
2023/01/20 05:59:28;;;;;;;;;;;4.10;99.90;;;;;;5035022;28;20048;-77
2023/01/20 06:01:54;;;;;;;46.45;22.88;;;4.10;99.90;;;;;;5052503;28;19904;-76
2023/01/20 06:04:20;;;;;;;35.42;20.05;;;4.10;99.90;;;;;;5052265;28;20402;-78
2023/01/20 06:07:01;;;;;;;38.70;19.70;;;4.10;99.90;;;;;;5029629;28;20049;-75
2023/01/20 06:09:27;;;;;;;40.03;22.10;;;4.10;99.90;;;;;;5052287;28;20028;-76
2023/01/20 06:11:52;;;;;;;44.60;24.83;;;4.10;99.90;;;;;;5034137;28;20020;-77
2023/01/20 06:14:18;;;;;;;44.25;24.58;;;4.10;99.90;;;;;;5052328;28;20036;-76
2023/01/20 06:16:44;;;;;;;44.40;23.25;;;4.10;99.90;;;;;;5052214;28;20025;-76
2023/01/20 06:19:10;;;;;;;45.83;21.40;;;4.20;99.90;;;;;;5052039;28;20056;-75
2023/01/20 06:21:36;;;;;;;41.10;25.00;;;4.20;99.90;;;;;;5034246;28;20033;-77
2023/01/20 06:24:02;;;;;;;42.22;24.77;;;4.10;99.90;;;;;;5020673;28;20112;-77
2023/01/20 06:26:27;;;;;;;43.53;25.73;;;4.20;99.90;;;;;;5034197;28;20033;-75
2023/01/20 06:28:59;;;;;;;39.17;22.52;;;4.20;99.90;;;;;;5051948;28;20028;-76
2023/01/20 06:31:27;;;;;;;44.42;26.15;;;4.20;99.90;;;;;;5034319;28;20029;-76
2023/01/20 06:33:55;;;;;;;43.20;23.52;;;4.20;99.90;;;;;;5040200;28;20114;-76
2023/01/20 06:36:21;;;;;;;38.75;20.30;;;4.30;99.90;;;;;;5041577;28;20439;-76
2023/01/20 06:38:49;;;;;;;46.33;26.02;;;4.30;99.90;;;;;;5051892;28;20051;-76
2023/01/20 06:41:16;;;;;;;44.90;23.80;;;4.20;99.90;;;;;;5051842;28;20013;-77
2023/01/20 06:43:42;;;;;;;43.45;21.98;;;4.30;99.90;;;;;;5052050;28;20017;-76
2023/01/20 06:46:13;;;;;;;35.30;21.02;;;4.30;99.90;;;;;;5027201;28;20102;-77
2023/01/20 06:48:41;;;;;;;42.70;23.13;;;4.20;99.90;;;;;;5040380;28;20051;-76
2023/01/20 06:51:11;;;;;;;45.83;26.58;;;4.30;99.90;;;;;;5051544;28;20052;-77
2023/01/20 06:53:37;;;;;;;38.22;23.27;;;4.30;99.90;;;;;;5050447;28;20136;-77
2023/01/20 06:56:03;;;;;;;41.10;21.63;;;4.30;99.90;;;;;;5051201;28;20017;-76
2023/01/20 06:58:31;;;;;;;50.85;25.23;;;4.30;99.90;;;;;;5033406;28;20092;-76
2023/01/20 07:01:02;;;;;;;46.58;23.73;;;4.30;99.90;;;;;;5051505;28;20033;-76
2023/01/20 07:03:28;;;;;;;43.05;22.20;;;4.30;99.90;;;;;;5051249;28;20087;-77
2023/01/20 07:06:00;;;;;;;48.35;23.27;;;4.30;99.90;;;;;;5051366;28;20032;-76
2023/01/20 07:08:26;;;;;;;44.13;23.02;;;4.30;99.90;;;;;;5051360;28;20029;-78
2023/01/20 07:10:52;;;;;;;38.88;23.42;;;4.30;99.90;;;;;;5051422;28;20527;-77
2023/01/20 07:13:17;;;;;;;37.40;21.63;;;4.20;99.90;;;;;;5051294;28;20025;-75
2023/01/20 07:15:43;;;;;;;43.90;24.00;;;4.20;99.90;;;;;;5051519;28;20021;-76
2023/01/20 07:18:09;;;;;;;41.92;25.08;;;4.20;99.90;;;;;;5051327;28;20025;-76
2023/01/20 07:20:37;;;;;;;48.03;27.90;;;4.30;99.90;;;;;;5033412;28;20479;-74
2023/01/20 07:23:04;;;;;;;45.65;24.67;;;4.30;99.90;;;;;;5051606;28;20392;-75
2023/01/20 07:25:30;;;;;;;49.17;26.97;;;4.30;99.90;;;;;;5050723;28;20556;-76
2023/01/20 07:27:59;;;;;;;40.05;23.95;;;4.30;99.90;;;;;;5050831;28;20336;-76
2023/01/20 07:30:25;;;;;;;40.58;24.90;;;4.30;99.90;;;;;;5050193;28;20032;-78
2023/01/20 07:32:51;;;;;;;42.58;27.02;;;4.30;99.90;;;;;;5040674;28;20380;-75
2023/01/20 07:35:17;;;;;;;43.78;20.45;;;4.30;99.90;;;;;;5044129;28;20025;-78
2023/01/20 07:37:43;;;;;;;40.10;23.10;;;4.30;99.90;;;;;;5051109;28;20079;-77
2023/01/20 07:40:09;;;;;;;38.75;22.02;;;4.30;99.90;;;;;;5051053;28;20476;-77
2023/01/20 07:42:38;;;;;;;46.95;23.20;;;4.20;99.90;;;;;;5051192;28;20027;-76
2023/01/20 07:45:05;;;;;;;35.80;18.52;;;4.30;99.90;;;;;;5050680;28;20036;-78
2023/01/20 07:47:31;;;;;;;46.83;25.98;;;4.20;99.90;;;;;;5051310;28;20435;-76
2023/01/20 07:49:57;;;;;;;39.90;20.48;;;4.20;99.90;;;;;;5051245;28;20025;-76
2023/01/20 07:52:22;;;;;;;41.35;19.23;;;4.20;99.90;;;;;;5051158;28;20021;-77
2023/01/20 07:54:48;;;;;;;41.63;25.33;;;4.30;99.90;;;;;;5051043;28;20025;-76
2023/01/20 07:57:14;;;;;;;40.05;25.33;;;4.20;99.90;;;;;;5050795;28;20100;-77
2023/01/20 07:59:40;;;;;;;39.85;23.25;;;4.20;99.90;;;;;;5051039;28;20501;-77
2023/01/20 08:02:08;;;;;;;45.33;24.08;;;4.30;99.90;;;;;;5033262;28;20018;-75
2023/01/20 08:04:34;;;;;;;36.10;21.45;;;4.30;99.90;;;;;;5050908;28;20043;-77
2023/01/20 08:07:00;;;;;;;42.90;25.38;;;4.30;99.90;;;;;;5036106;28;20107;-76
2023/01/20 08:09:26;;;;;;;40.75;21.63;;;4.30;99.90;;;;;;5054701;28;20553;-78
2023/01/20 08:11:52;;;;;;;45.05;24.63;;;4.30;99.90;;;;;;5054561;28;20475;-76
2023/01/20 08:14:17;;;;;;;48.28;25.55;;;4.30;99.90;;;;;;5054729;28;20017;-77
2023/01/20 08:16:43;;;;;;;37.92;19.73;;;4.30;99.90;;;;;;5054102;28;20025;-76
2023/01/20 08:19:09;;;;;;;44.53;25.85;;;4.50;99.90;;;;;;5054571;28;20025;-77
2023/01/20 08:21:35;;;;;;;44.33;24.77;;;4.40;99.90;;;;;;5036674;28;20032;-76
2023/01/20 08:24:04;;;;;;;46.70;24.65;;;4.40;99.90;;;;;;5054355;28;20013;-80
2023/01/20 08:26:31;;;;;;;42.45;23.50;;;4.40;99.90;;;;;;5034615;28;20139;-77
2023/01/20 08:29:08;;;;;;;40.33;22.43;;;4.40;99.90;;;;;;5039537;28;20055;-78
2023/01/20 08:31:34;;;;;;;37.90;22.73;;;4.40;99.90;;;;;;5050535;28;20017;-77
2023/01/20 08:34:01;;;;;;;41.60;22.92;;;4.40;99.90;;;;;;5034904;28;20029;-77
2023/01/20 08:36:30;;;;;;;38.15;21.25;;;4.30;99.90;;;;;;5043948;28;20121;-77
2023/01/20 08:38:58;;;;;;;42.08;22.52;;;4.30;99.90;;;;;;5054017;28;20060;-77
2023/01/20 08:41:27;;;;;;;41.67;25.42;;;4.30;99.90;;;;;;5054301;28;20021;-77
2023/01/20 08:43:53;;;;;;;46.15;25.48;;;4.40;99.90;;;;;;5053952;28;20391;-77
2023/01/20 08:46:20;;;;;;;40.45;22.80;;;4.40;99.90;;;;;;5033439;28;20025;-78
2023/01/20 08:48:48;;;;;;;42.13;24.30;;;4.40;99.90;;;;;;5043045;28;20097;-75
2023/01/20 08:51:20;;;;;;;45.13;26.13;;;4.50;99.90;;;;;;5053822;28;20039;-77
2023/01/20 08:53:46;;;;;;;45.58;21.67;;;4.60;99.90;;;;;;5054104;28;20021;-77
2023/01/20 08:56:12;;;;;;;40.28;20.17;;;4.50;99.90;;;;;;5047478;28;20124;-76
2023/01/20 08:58:39;;;;;;;37.97;21.70;;;4.50;99.90;;;;;;5035062;28;20045;-76
2023/01/20 09:01:19;;;;;;;37.83;23.53;;;4.50;99.90;;;;;;5046246;28;20029;-76
2023/01/20 09:03:45;;;;;;;39.95;22.50;;;4.50;99.90;;;;;;5053565;28;20021;-76
2023/01/20 09:06:12;;;;;;;41.30;21.70;;;4.50;99.90;;;;;;5050102;28;20108;-77
2023/01/20 09:08:38;;;;;;;34.78;19.25;;;4.50;99.90;;;;;;5052179;28;20070;-77
2023/01/20 09:11:05;;;;;;;42.95;20.92;;;4.50;99.90;;;;;;5053380;28;20021;-77
2023/01/20 09:13:31;;;;;;;34.70;16.63;;;4.40;99.90;;;;;;5035292;28;20594;-80
2023/01/20 09:15:57;;;;;;;44.92;26.00;;;4.40;99.90;;;;;;5053795;28;20104;-76
2023/01/20 09:18:23;;;;;;;39.67;22.73;;;4.50;99.90;;;;;;5034294;28;20384;-77
2023/01/20 09:20:49;;;;;;;35.67;19.90;;;4.50;99.90;;;;;;5053335;28;20025;-78
2023/01/20 09:23:15;;;;;;;40.25;21.30;;;4.60;99.90;;;;;;5053196;28;20033;-76
2023/01/20 09:25:41;;;;;;;38.97;22.05;;;4.60;99.90;;;;;;5033027;28;20040;-77
2023/01/20 09:28:07;;;;;;;41.38;24.70;;;4.60;99.90;;;;;;5053287;28;20028;-76
2023/01/20 09:30:32;;;;;;;38.67;21.27;;;4.70;99.90;;;;;;5049099;28;20029;-78
2023/01/20 09:32:59;;;;;;;34.97;20.30;;;4.70;99.90;;;;;;5053121;28;20017;-77
2023/01/20 09:35:25;;;;;;;38.13;21.48;;;4.70;99.90;;;;;;5052733;28;20079;-77
2023/01/20 09:44:36;;;;;;;37.88;20.65;;;4.50;99.90;;;;;;5037180;28;20087;-81
2023/01/20 09:47:40;;;;;;;40.53;24.35;;;4.50;99.90;;;;;;5034634;28;20167;-78
2023/01/20 09:53:41;;;;;;;36.90;18.02;;;4.50;99.90;;;;;;5050876;28;20162;-78
2023/01/20 09:56:16;;;;;;;42.45;25.05;;;4.60;99.90;;;;;;5051982;28;20122;-78
2023/01/20 09:58:58;;;;;;;43.90;22.95;;;4.60;99.90;;;;;;5029864;28;20045;-78
2023/01/20 10:01:29;;;;;;;43.25;22.73;;;4.60;99.90;;;;;;5046231;28;20025;-79
2023/01/20 10:04:16;;;;;;;40.72;20.33;;;4.70;99.90;;;;;;5052550;28;20083;-79
2023/01/20 10:06:54;;;;;;;42.67;24.17;;;4.80;99.90;;;;;;5052458;28;20025;-78
2023/01/20 10:09:42;;;;;;;44.33;23.48;;;4.70;99.90;;;;;;5052521;28;20634;-78
2023/01/20 10:12:17;;;;;;;;;;;4.80;99.90;;;;;;5052885;28;20092;-81
2023/01/20 10:14:51;;;;;;;35.03;21.75;;;4.80;99.90;;;;;;5052454;28;19912;-80
2023/01/20 10:17:22;;;;;;;35.03;19.10;;;4.70;99.90;;;;;;5034795;28;20024;-78
2023/01/20 10:19:58;;;;;;;44.90;23.70;;;4.80;99.90;;;;;;5052846;28;20017;-80
2023/01/20 10:22:52;;;;;;;32.92;19.63;;;4.80;99.90;;;;;;5017637;28;20021;-79
2023/01/20 10:25:31;;;;;;;34.17;19.98;;;4.90;99.90;;;;;;5044749;28;20041;-79
2023/01/20 10:28:14;;;;;;;35.38;20.60;;;4.90;99.90;;;;;;5052109;28;20094;-78
2023/01/20 10:30:40;;;;;;;38.20;24.25;;;4.90;99.90;;;;;;5050871;28;20021;-78
2023/01/20 10:33:11;;;;;;;44.45;22.08;;;4.80;99.90;;;;;;5052180;28;20438;-80
2023/01/20 10:35:47;;;;;;;40.35;23.80;;;4.90;99.90;;;;;;5052165;28;20035;-80
2023/01/20 10:38:37;;;;;;;43.90;23.80;;;5.00;99.90;;;;;;5052251;28;20028;-79
2023/01/20 10:41:10;;;;;;;40.15;20.30;;;5.10;99.90;;;;;;5052087;28;20154;-79
2023/01/20 10:43:36;;;;;;;38.08;22.40;;;5.20;99.90;;;;;;5048353;28;20514;-78
2023/01/20 10:46:20;;;;;;;37.50;21.88;;;5.10;99.90;;;;;;5033222;28;20037;-80
2023/01/20 10:49:13;;;;;;;34.88;20.10;;;5.20;99.90;;;;;;5046683;28;20083;-78
2023/01/20 10:51:44;;;;;;;39.63;23.13;;;5.20;99.90;;;;;;5050413;28;20032;-79
2023/01/20 10:54:40;;;;;;;37.22;21.70;;;5.20;99.90;;;;;;5051849;28;20032;-77
2023/01/20 10:57:12;;;;;;;37.35;19.30;;;5.30;99.90;;;;;;5051820;28;20039;-77
2023/01/20 11:00:02;;;;;;;36.13;23.23;;;5.30;99.90;;;;;;5035824;28;20075;-78
2023/01/20 11:02:36;;;;;;;43.13;22.98;;;5.30;99.90;;;;;;5051796;28;20043;-78
2023/01/20 11:05:08;;;;;;;36.58;24.02;;;5.40;99.90;;;;;;5051375;28;20065;-79
2023/01/20 11:07:35;;;;;;;42.83;20.23;;;5.40;99.90;;;;;;5051691;28;20067;-79
2023/01/20 11:10:17;;;;;;;34.28;23.20;;;5.50;99.80;;;;;;5051430;28;20029;-80
2023/01/20 11:12:47;;;;;;;37.50;22.40;;;5.50;99.60;;;;;;5051586;28;20067;-78
2023/01/20 11:15:20;;;;;;;40.58;21.67;;;5.40;99.60;;;;;;5024138;28;20036;-77
2023/01/20 11:18:15;;;;;;;38.95;20.60;;;5.40;99.60;;;;;;5051102;28;20025;-81
2023/01/20 11:20:54;;;;;;;33.47;20.50;;;5.40;99.70;;;;;;5033136;28;20040;-80
2023/01/20 11:23:46;;;;;;;34.45;18.60;;;5.40;99.50;;;;;;5032353;28;20033;-80
2023/01/20 11:26:34;;;;;;;37.42;18.73;;;5.30;99.50;;;;;;5031758;28;20112;-79
2023/01/20 11:29:23;;;;;;;31.13;19.08;;;5.20;99.50;;;;;;5037265;28;20040;-76
2023/01/20 11:31:53;;;;;;;33.30;18.45;;;5.20;99.60;;;;;;5051106;28;20107;-77
2023/01/20 11:34:23;;;;;;;28.23;15.38;;;5.10;99.60;;;;;;5047226;28;20082;-78
2023/01/20 11:37:03;;;;;;;36.42;20.23;;;5.10;99.70;;;;;;5051138;28;20036;-77
2023/01/20 11:39:32;;;;;;;38.90;20.60;;;5.20;99.80;;;;;;5051233;28;20017;-77
2023/01/20 11:42:15;;;;;;;31.40;16.35;;;5.20;99.70;;;;;;5036616;28;20478;-79
2023/01/20 11:44:52;;;;;;;36.08;19.27;;;5.20;99.50;;;;;;5055241;28;20118;-78
2023/01/20 11:47:23;;;;;;;32.30;19.02;;;5.20;99.60;;;;;;5055175;28;20369;-78
2023/01/20 11:50:04;;;;;;;42.55;21.73;;;5.20;99.70;;;;;;5055085;28;20542;-77
2023/01/20 11:52:47;;;;;;;33.25;18.85;;;5.30;99.60;;;;;;5055307;28;20395;-79
2023/01/20 11:55:23;;;;;;;32.80;19.02;;;5.40;99.50;;;;;;5050731;28;20522;-79
2023/01/20 11:57:54;;;;;;;36.15;19.83;;;5.40;99.50;;;;;;5036798;28;20057;-80
2023/01/20 12:00:30;;;;;;;33.25;18.85;;;5.50;99.40;;;;;;5046288;28;20029;-80
2023/01/20 12:03:01;;;;;;;31.80;18.10;;;5.50;99.00;;;;;;5049140;28;20017;-78
2023/01/20 12:05:44;;;;;;;22.77;15.27;;;5.40;99.00;;;;;;5050689;28;20029;-80
2023/01/20 12:08:39;;;;;;;34.08;19.65;;;5.40;98.80;;;;;;5055141;28;20060;-79
2023/01/20 12:11:06;;;;;;;24.17;14.25;;;5.40;99.00;;;;;;5035356;28;20040;-79
2023/01/20 12:16:27;;;;;;;31.33;18.95;;;5.20;98.80;;;;;;5055648;28;20064;-80
2023/01/20 12:18:58;;;;;;;38.30;17.88;;;5.20;99.00;;;;;;5043453;28;20057;-80
2023/01/20 12:21:33;;;;;;;27.70;16.80;;;5.20;99.30;;;;;;5054934;28;20045;-82
2023/01/20 12:24:22;;;;;;;24.92;12.82;;;5.20;99.10;;;;;;5054887;28;20383;-81
2023/01/20 12:26:48;;;;;;;22.25;14.02;;;5.20;98.90;;;;;;5037100;28;20033;-77
2023/01/20 12:29:32;;;;;;;29.20;17.10;;;5.20;99.10;;;;;;5049119;28;20021;-79
2023/01/20 12:31:59;;;;;;;28.10;15.60;;;5.20;99.10;;;;;;5044970;28;20029;-77
2023/01/20 12:34:30;;;;;;;28.95;16.17;;;5.20;99.10;;;;;;5023556;28;20075;-79
2023/01/20 12:37:02;;;;;;;34.53;17.42;;;5.20;99.10;;;;;;5054814;28;20033;-77
2023/01/20 12:40:12;;;;;;;31.55;18.05;;;5.30;99.10;;;;;;5048485;28;20065;-77
2023/01/20 12:42:57;;;;;;;37.10;18.13;;;5.30;99.20;;;;;;4972056;28;20026;-79
2023/01/20 12:45:33;;;;;;;28.38;16.15;;;5.30;98.80;;;;;;4991541;28;20038;-79
2023/01/20 12:48:23;;;;;;;31.02;16.58;;;5.20;98.70;;;;;;5029032;28;20040;-78
2023/01/20 12:51:13;;;;;;;24.20;15.63;;;5.20;98.90;;;;;;5042431;28;20021;-79
2023/01/20 12:54:13;;;;;;;30.42;16.92;;;5.20;98.80;;;;;;5056331;28;20041;-77
2023/01/20 12:57:07;;;;;;;32.30;16.00;;;5.20;98.90;;;;;;5052064;28;20017;-79
2023/01/20 12:59:45;;;;;;;31.52;18.83;;;5.20;99.00;;;;;;5054768;28;20037;-78
2023/01/20 13:02:25;;;;;;;35.90;17.73;;;5.30;98.90;;;;;;5054173;28;20021;-78
2023/01/20 13:05:02;;;;;;;30.67;15.23;;;5.30;98.80;;;;;;5037517;28;20408;-77
2023/01/20 13:07:46;;;;;;;;;;;5.20;98.60;;;;;;5043325;28;20357;-76
2023/01/20 13:10:15;;;;;;;18.02;10.93;;;5.20;98.80;;;;;;5050271;28;19913;-77
2023/01/20 13:12:53;;;;;;;30.15;16.75;;;5.10;98.60;;;;;;5043197;28;20511;-79